Aviation Digital Data Service (ADDS)

Output produced by METARs form (1422 UTC 27 January 2015)
found at http://aviationweather.gov/adds/metars/
 
KRDU 271128Z 2712/2812 VRB05KT P6SM OVC035 
     FM271500 33009G16KT P6SM SCT250 
     FM280000 00000KT P6SM BKN250